Time;durP1;ratioP1;P1;durP2;ratioP2;P2;SDS_P1;SDS_P2;PMS_P1;PMS_P2;Temp;Humidity;BMP_temperature;BMP_pressure;BME280_temperature;BME280_humidity;BME280_pressure;Samples;Min_cycle;Max_cycle;Signal;HPM_P1;HPM_P2
2024/01/14 00:00:02;;;;;;;7.35;1.80;;;4.20;99.90;;;;;;5106306;28;20042;-90
2024/01/14 00:02:27;;;;;;;6.63;1.63;;;4.10;99.90;;;;;;5103175;28;20089;-90
2024/01/14 00:04:53;;;;;;;6.60;1.70;;;4.00;99.90;;;;;;5105879;28;20106;-91
2024/01/14 00:07:19;;;;;;;5.60;1.77;;;4.00;99.90;;;;;;5101774;28;20028;-90
2024/01/14 00:09:44;;;;;;;5.95;1.80;;;3.90;99.90;;;;;;5102039;28;20019;-91
2024/01/14 00:12:10;;;;;;;4.82;1.40;;;3.90;99.90;;;;;;5102989;28;20028;-90
2024/01/14 00:14:36;;;;;;;9.85;1.30;;;3.90;99.90;;;;;;5113549;28;20096;-89
2024/01/14 00:17:01;;;;;;;5.45;1.20;;;3.80;99.90;;;;;;5101128;28;20477;-90
2024/01/14 00:19:27;;;;;;;4.70;1.35;;;3.80;99.90;;;;;;5102135;28;20028;-89
2024/01/14 00:21:53;;;;;;;7.50;1.55;;;3.80;99.90;;;;;;5104941;28;20048;-89
2024/01/14 00:24:18;;;;;;;7.05;1.30;;;3.80;99.90;;;;;;5103393;28;20019;-90
2024/01/14 00:26:44;;;;;;;8.40;2.05;;;3.80;99.90;;;;;;5103654;28;20015;-90
2024/01/14 00:29:10;;;;;;;6.00;1.65;;;3.80;99.90;;;;;;5102410;28;20028;-89
2024/01/14 00:31:35;;;;;;;7.85;1.95;;;3.80;99.90;;;;;;5102669;28;20016;-90
2024/01/14 00:34:01;;;;;;;6.95;2.88;;;3.70;99.90;;;;;;5105266;28;20062;-89
2024/01/14 00:36:27;;;;;;;6.85;1.92;;;3.70;99.90;;;;;;5104186;28;20465;-90
2024/01/14 00:38:52;;;;;;;8.77;1.65;;;3.70;99.90;;;;;;5107426;28;20027;-89
2024/01/14 00:41:20;;;;;;;13.23;1.83;;;3.70;99.90;;;;;;5107760;28;20069;-90
2024/01/14 00:43:45;;;;;;;4.97;1.42;;;3.70;99.90;;;;;;5104624;28;20087;-90
2024/01/14 00:46:12;;;;;;;7.97;1.38;;;3.70;99.90;;;;;;5104652;28;20418;-90
2024/01/14 00:48:38;;;;;;;7.97;1.42;;;3.70;99.90;;;;;;5105337;28;20389;-91
2024/01/14 00:51:04;;;;;;;5.97;1.60;;;3.70;99.90;;;;;;5103590;28;20024;-88
2024/01/14 00:53:30;;;;;;;4.78;1.60;;;3.60;99.90;;;;;;5104391;28;20035;-89
2024/01/14 00:55:55;;;;;;;9.38;1.00;;;3.60;99.90;;;;;;5102868;28;20024;-89
2024/01/14 00:58:21;;;;;;;6.45;1.25;;;3.60;99.90;;;;;;5104080;28;20477;-90
2024/01/14 01:00:47;;;;;;;7.85;1.10;;;3.60;99.90;;;;;;5101636;28;20035;-89
2024/01/14 01:03:13;;;;;;;8.52;1.20;;;3.60;99.90;;;;;;5103756;28;20024;-89
2024/01/14 01:05:38;;;;;;;6.22;1.00;;;3.50;99.90;;;;;;5103370;28;20472;-89
2024/01/14 01:08:05;;;;;;;7.05;1.05;;;3.50;99.90;;;;;;5104927;28;20057;-88
2024/01/14 01:10:31;;;;;;;5.78;1.23;;;3.50;99.90;;;;;;5113130;28;20024;-89
2024/01/14 01:12:56;;;;;;;3.15;1.00;;;3.40;99.90;;;;;;5112446;28;20026;-88
2024/01/14 01:15:22;;;;;;;6.22;1.77;;;3.30;99.90;;;;;;5113961;28;20028;-89
2024/01/14 01:17:48;;;;;;;6.32;1.20;;;3.30;99.90;;;;;;5112994;28;20380;-89
2024/01/14 01:20:13;;;;;;;4.63;1.45;;;3.20;99.90;;;;;;5112931;28;20044;-88
2024/01/14 01:22:39;;;;;;;5.00;1.48;;;3.20;99.90;;;;;;5112755;28;20086;-90
2024/01/14 01:25:05;;;;;;;4.85;1.73;;;3.10;99.90;;;;;;5112096;28;20044;-90
2024/01/14 01:27:31;;;;;;;5.55;1.20;;;3.10;99.90;;;;;;5111754;28;20377;-89
2024/01/14 01:29:57;;;;;;;4.85;0.82;;;3.10;99.90;;;;;;5112200;28;20020;-89
2024/01/14 01:32:22;;;;;;;3.55;0.80;;;3.10;99.90;;;;;;5112171;28;20023;-89
2024/01/14 01:34:48;;;;;;;3.70;0.90;;;3.10;99.90;;;;;;5112629;28;20047;-89
2024/01/14 01:37:14;;;;;;;3.55;0.93;;;3.10;99.90;;;;;;5113002;28;20035;-89
2024/01/14 01:39:40;;;;;;;3.45;1.20;;;3.10;99.90;;;;;;5112435;28;20536;-89
2024/01/14 01:42:06;;;;;;;4.38;1.00;;;3.10;99.90;;;;;;5112573;28;20405;-89
2024/01/14 01:44:33;;;;;;;8.40;1.02;;;3.10;99.90;;;;;;5112607;28;20100;-90
2024/01/14 01:47:00;;;;;;;5.25;1.23;;;3.10;99.90;;;;;;5111577;28;20031;-89
2024/01/14 01:49:27;;;;;;;3.78;0.80;;;3.10;99.90;;;;;;5112056;28;20499;-88
2024/01/14 01:51:54;;;;;;;6.82;1.73;;;3.10;99.90;;;;;;5112230;28;20115;-89
2024/01/14 01:54:27;;;;;;;7.40;1.00;;;3.20;99.90;;;;;;5112267;28;20031;-89
2024/01/14 01:56:53;;;;;;;4.30;0.90;;;3.20;99.90;;;;;;5111590;28;20016;-88
2024/01/14 01:59:20;;;;;;;2.08;1.13;;;3.20;99.90;;;;;;5112195;28;20523;-88
2024/01/14 02:01:47;;;;;;;2.85;1.35;;;3.20;99.90;;;;;;5111675;28;20114;-89
2024/01/14 02:04:17;;;;;;;2.75;0.88;;;3.20;99.90;;;;;;5114967;28;20024;-89
2024/01/14 02:06:43;;;;;;;5.57;1.02;;;3.20;99.90;;;;;;5116423;28;20461;-88
2024/01/14 02:09:09;;;;;;;5.82;1.50;;;3.20;99.90;;;;;;5116518;28;20061;-89
2024/01/14 02:11:36;;;;;;;2.33;0.68;;;3.10;99.90;;;;;;5116389;28;20020;-89
2024/01/14 02:14:03;;;;;;;4.15;0.88;;;3.10;99.90;;;;;;5116787;28;20489;-89
2024/01/14 02:16:29;;;;;;;5.13;0.73;;;3.00;99.90;;;;;;5117856;27;20136;-89
2024/01/14 02:18:54;;;;;;;10.98;1.00;;;3.00;99.90;;;;;;5115911;28;20400;-89
2024/01/14 02:21:23;;;;;;;7.47;1.25;;;3.00;99.90;;;;;;5118466;28;20067;-87
2024/01/14 02:24:16;;;;;;;8.50;1.42;;;2.90;99.90;;;;;;5121358;28;20173;-89
2024/01/14 02:26:42;;;;;;;3.72;0.60;;;2.90;99.90;;;;;;5115809;28;20532;-89
2024/01/14 02:29:08;;;;;;;2.55;0.65;;;2.80;99.90;;;;;;5115986;28;20072;-89
2024/01/14 02:31:34;;;;;;;6.55;0.90;;;2.80;99.90;;;;;;5115716;28;20034;-89
2024/01/14 02:34:00;;;;;;;4.30;0.60;;;2.80;99.90;;;;;;5115446;28;20126;-89
2024/01/14 02:36:25;;;;;;;4.95;0.70;;;2.70;99.90;;;;;;5115320;28;20530;-89
2024/01/14 02:38:51;;;;;;;5.10;0.73;;;2.60;99.90;;;;;;5115530;28;20019;-89
2024/01/14 02:41:17;;;;;;;3.55;0.60;;;2.60;99.90;;;;;;5114919;28;20023;-89
2024/01/14 02:43:42;;;;;;;2.90;0.68;;;2.50;99.90;;;;;;5115583;28;20127;-89
2024/01/14 02:46:08;;;;;;;3.30;0.73;;;2.50;99.90;;;;;;5116027;28;20468;-89
2024/01/14 02:48:33;;;;;;;4.90;0.88;;;2.50;99.90;;;;;;5116081;28;20035;-90
2024/01/14 02:50:59;;;;;;;5.00;1.05;;;2.40;99.90;;;;;;5115046;28;20115;-89
2024/01/14 02:53:25;;;;;;;2.40;0.50;;;2.40;99.90;;;;;;5115147;28;20461;-88
2024/01/14 02:55:50;;;;;;;4.22;0.73;;;2.40;99.90;;;;;;5115485;28;20047;-88
2024/01/14 02:58:16;;;;;;;3.08;0.73;;;2.30;99.90;;;;;;5115612;28;20362;-88
2024/01/14 03:00:42;;;;;;;4.38;0.77;;;2.30;99.90;;;;;;5115357;28;20028;-88
2024/01/14 03:03:07;;;;;;;1.88;0.77;;;2.20;99.90;;;;;;5115710;28;20023;-89
2024/01/14 03:05:33;;;;;;;5.25;0.80;;;2.20;99.90;;;;;;5115160;28;20031;-89
2024/01/14 03:07:59;;;;;;;5.60;0.50;;;2.20;99.90;;;;;;5114957;28;20027;-89
2024/01/14 03:10:24;;;;;;;2.97;1.23;;;2.10;99.90;;;;;;5114292;28;20015;-88
2024/01/14 03:12:50;;;;;;;1.88;0.60;;;2.10;99.90;;;;;;5114859;28;20024;-88
2024/01/14 03:15:16;;;;;;;5.72;0.90;;;2.10;99.90;;;;;;5115085;28;20036;-88
2024/01/14 03:17:41;;;;;;;5.28;0.77;;;2.00;99.90;;;;;;5115039;28;20031;-90
2024/01/14 03:20:08;;;;;;;4.63;0.75;;;2.00;99.90;;;;;;5114469;28;20062;-89
2024/01/14 03:22:33;;;;;;;4.88;0.52;;;2.00;99.90;;;;;;5114019;28;20063;-89
2024/01/14 03:24:59;;;;;;;2.15;1.15;;;2.00;99.90;;;;;;5114514;28;20601;-88
2024/01/14 03:27:25;;;;;;;3.60;0.82;;;2.00;99.90;;;;;;5114778;28;20020;-89
2024/01/14 03:29:50;;;;;;;5.47;0.82;;;2.00;99.90;;;;;;5114727;28;20028;-89
2024/01/14 03:32:16;;;;;;;13.75;1.40;;;2.00;99.90;;;;;;5114340;28;20035;-89
2024/01/14 03:34:42;;;;;;;5.95;1.00;;;2.00;99.90;;;;;;5114675;28;20043;-89
2024/01/14 03:37:08;;;;;;;2.08;0.95;;;2.00;99.90;;;;;;5114681;28;20076;-90
2024/01/14 03:39:33;;;;;;;1.95;0.60;;;1.90;99.90;;;;;;5116013;28;20039;-88
2024/01/14 03:41:59;;;;;;;4.93;0.80;;;1.90;99.90;;;;;;5114589;28;20020;-88
2024/01/14 03:44:25;;;;;;;2.25;0.93;;;1.90;99.90;;;;;;5114951;28;20028;-88
2024/01/14 03:46:51;;;;;;;6.00;0.80;;;1.90;99.90;;;;;;5108530;28;20020;-89
2024/01/14 03:49:16;;;;;;;4.15;0.75;;;1.90;99.90;;;;;;5094480;28;20073;-86
2024/01/14 03:51:42;;;;;;;5.82;0.90;;;1.90;99.90;;;;;;5094263;28;20051;-88
2024/01/14 03:54:08;;;;;;;2.50;0.90;;;1.90;99.90;;;;;;5093588;28;20040;-88
2024/01/14 03:56:34;;;;;;;2.47;0.70;;;1.70;99.90;;;;;;5093330;28;20050;-88
2024/01/14 03:58:59;;;;;;;6.25;0.90;;;1.60;99.90;;;;;;5093786;28;20389;-89
2024/01/14 04:01:25;;;;;;;8.05;0.80;;;1.60;99.90;;;;;;5093735;28;20020;-88
2024/01/14 04:03:51;;;;;;;2.10;0.77;;;1.60;99.90;;;;;;5094368;28;20081;-88
2024/01/14 04:06:20;;;;;;;5.70;1.17;;;1.60;99.90;;;;;;5093825;28;20020;-88
2024/01/14 04:08:48;;;;;;;3.85;0.93;;;1.50;99.90;;;;;;5093121;28;20093;-88
2024/01/14 04:11:13;;;;;;;3.05;0.85;;;1.40;99.90;;;;;;5093583;28;20027;-88
2024/01/14 04:13:39;;;;;;;2.13;0.88;;;1.40;99.90;;;;;;5093547;28;20024;-88
2024/01/14 04:16:07;;;;;;;6.47;1.00;;;1.30;99.90;;;;;;5092987;28;20113;-88
2024/01/14 04:18:34;;;;;;;10.20;1.45;;;1.30;99.90;;;;;;5093113;28;20016;-89
2024/01/14 04:21:00;;;;;;;6.93;1.13;;;1.20;99.90;;;;;;5093283;28;20024;-89
2024/01/14 04:23:25;;;;;;;3.05;0.80;;;1.10;99.90;;;;;;5110714;28;20370;-88
2024/01/14 04:25:51;;;;;;;3.42;1.10;;;1.10;99.90;;;;;;5109793;28;20040;-88
2024/01/14 04:28:17;;;;;;;3.63;1.08;;;1.10;99.90;;;;;;5110258;28;20028;-89
2024/01/14 04:30:43;;;;;;;2.42;0.98;;;1.10;99.90;;;;;;5110710;28;20039;-88
2024/01/14 04:33:08;;;;;;;5.47;1.00;;;1.10;99.90;;;;;;5112810;28;20089;-88
2024/01/14 04:35:34;;;;;;;7.18;1.08;;;1.00;99.90;;;;;;5110932;28;20071;-88
2024/01/14 04:38:00;;;;;;;4.75;0.93;;;1.00;99.90;;;;;;5109619;28;20032;-88
2024/01/14 04:40:25;;;;;;;3.10;0.88;;;1.00;99.90;;;;;;5110118;28;20067;-88
2024/01/14 04:42:51;;;;;;;3.22;0.88;;;1.00;99.90;;;;;;5109553;28;20118;-88
2024/01/14 04:45:17;;;;;;;4.70;1.00;;;0.90;99.90;;;;;;5109492;28;20031;-88
2024/01/14 04:47:42;;;;;;;8.25;1.15;;;0.90;99.90;;;;;;5075703;28;20537;-90
2024/01/14 04:50:08;;;;;;;7.55;1.17;;;0.90;99.90;;;;;;5109690;28;20020;-89
2024/01/14 04:52:34;;;;;;;6.07;1.00;;;0.80;99.90;;;;;;5109533;28;20047;-90
2024/01/14 04:54:59;;;;;;;3.00;0.70;;;0.80;99.90;;;;;;5109395;28;20611;-88
2024/01/14 04:57:25;;;;;;;7.20;1.52;;;0.70;99.90;;;;;;5075528;28;20016;-87
2024/01/14 04:59:51;;;;;;;2.53;1.20;;;0.60;99.90;;;;;;5109167;28;20032;-88
2024/01/14 05:02:17;;;;;;;3.30;0.95;;;0.60;99.90;;;;;;5108949;28;20106;-88
2024/01/14 05:04:42;;;;;;;8.18;1.02;;;0.60;99.90;;;;;;5108971;28;20063;-88
2024/01/14 05:07:08;;;;;;;5.25;1.17;;;0.60;99.90;;;;;;5108377;28;20077;-89
2024/01/14 05:09:33;;;;;;;2.85;0.77;;;0.60;99.90;;;;;;5106966;28;20022;-89
2024/01/14 05:11:59;;;;;;;6.90;1.02;;;0.60;99.90;;;;;;5108761;28;20630;-89
2024/01/14 05:14:25;;;;;;;4.00;1.10;;;0.60;99.90;;;;;;5108787;28;20032;-90
2024/01/14 05:16:51;;;;;;;3.13;1.20;;;0.70;99.90;;;;;;5109336;28;20024;-89
2024/01/14 05:19:16;;;;;;;5.13;0.82;;;0.60;99.90;;;;;;5108870;28;20032;-90
2024/01/14 05:21:42;;;;;;;4.03;1.17;;;0.60;99.90;;;;;;5113684;27;20169;-90
2024/01/14 05:24:08;;;;;;;4.95;0.88;;;0.60;99.90;;;;;;5092159;28;20035;-89
2024/01/14 05:26:39;;;;;;;6.45;0.90;;;0.60;99.90;;;;;;5091558;28;20059;-89
2024/01/14 05:29:04;;;;;;;5.70;1.98;;;0.50;99.90;;;;;;5092636;28;20467;-90
2024/01/14 05:31:30;;;;;;;5.32;1.10;;;0.40;99.90;;;;;;5092392;28;20028;-88
2024/01/14 05:33:56;;;;;;;4.45;1.65;;;0.40;99.90;;;;;;5092047;28;20024;-88
2024/01/14 05:36:21;;;;;;;6.22;1.13;;;0.40;99.90;;;;;;5109133;28;20032;-89
2024/01/14 05:38:47;;;;;;;5.40;1.45;;;0.30;99.90;;;;;;5110765;28;20030;-88
2024/01/14 05:41:13;;;;;;;4.95;0.63;;;0.30;99.90;;;;;;5112107;28;20024;-89
2024/01/14 05:43:39;;;;;;;6.32;0.80;;;0.20;99.90;;;;;;5112098;28;20051;-88
2024/01/14 05:46:04;;;;;;;3.13;0.90;;;0.30;99.90;;;;;;5112649;28;20451;-88
2024/01/14 05:48:30;;;;;;;9.25;1.08;;;0.20;99.90;;;;;;5112000;28;20119;-88
2024/01/14 05:50:56;;;;;;;6.07;1.02;;;0.30;99.90;;;;;;5112005;28;20054;-88
2024/01/14 05:53:21;;;;;;;7.10;0.90;;;0.30;99.90;;;;;;5112204;28;20472;-89
2024/01/14 05:55:47;;;;;;;2.13;1.05;;;0.20;99.90;;;;;;5112561;28;20031;-88
2024/01/14 05:58:13;;;;;;;8.82;2.15;;;0.20;99.90;;;;;;5111951;28;20020;-88
2024/01/14 06:00:39;;;;;;;7.40;0.80;;;0.20;99.90;;;;;;5112252;28;20469;-88
2024/01/14 06:03:07;;;;;;;4.38;0.77;;;0.20;99.90;;;;;;5112421;28;20085;-88
2024/01/14 06:05:33;;;;;;;7.10;1.73;;;0.20;99.90;;;;;;5095585;28;20400;-88
2024/01/14 06:07:58;;;;;;;5.25;1.30;;;0.20;99.90;;;;;;5111392;28;20027;-88
2024/01/14 06:10:25;;;;;;;2.55;0.88;;;0.20;99.90;;;;;;5111127;28;20031;-89
2024/01/14 06:12:50;;;;;;;3.45;0.90;;;0.10;99.90;;;;;;5111549;28;20514;-89
2024/01/14 06:15:16;;;;;;;6.80;1.05;;;0.10;99.90;;;;;;5111712;28;20035;-88
2024/01/14 06:17:42;;;;;;;4.47;1.42;;;0.00;99.90;;;;;;5111289;28;20493;-89
2024/01/14 06:20:09;;;;;;;4.57;0.90;;;0.00;99.90;;;;;;5115172;28;20110;-88
2024/01/14 06:22:35;;;;;;;4.20;1.10;;;0.00;99.90;;;;;;5117322;28;20103;-89
2024/01/14 06:25:00;;;;;;;4.38;1.10;;;0.00;99.90;;;;;;5112010;28;20054;-88
2024/01/14 06:27:26;;;;;;;6.10;1.05;;;0.00;99.90;;;;;;5112278;28;20027;-90
2024/01/14 06:29:52;;;;;;;8.20;1.40;;;0.00;99.90;;;;;;5111799;28;20019;-88
2024/01/14 06:32:17;;;;;;;2.78;1.30;;;0.00;99.90;;;;;;5111838;28;20030;-88
2024/01/14 06:34:43;;;;;;;6.80;1.00;;;0.00;99.90;;;;;;5111833;28;20173;-88
2024/01/14 06:37:09;;;;;;;2.90;1.08;;;-0.10;99.90;;;;;;5111787;28;20031;-88
2024/01/14 06:39:35;;;;;;;4.35;1.00;;;-0.10;99.90;;;;;;5111973;28;20115;-88
2024/01/14 06:42:01;;;;;;;3.28;1.00;;;-0.10;99.90;;;;;;5111503;28;20432;-89
2024/01/14 06:44:26;;;;;;;7.15;1.13;;;-0.10;99.90;;;;;;5111948;28;20035;-88
2024/01/14 06:46:52;;;;;;;1.75;1.02;;;-0.20;99.90;;;;;;5114749;28;20069;-89
2024/01/14 06:49:18;;;;;;;7.53;1.27;;;-0.20;99.90;;;;;;5113371;28;20035;-88
2024/01/14 06:51:45;;;;;;;8.00;1.42;;;-0.20;99.90;;;;;;5116803;28;20038;-88
2024/01/14 06:54:10;;;;;;;6.20;2.03;;;-0.30;99.90;;;;;;5115482;28;20114;-89
2024/01/14 06:56:44;;;;;;;3.92;0.93;;;-0.30;99.90;;;;;;5114989;28;20055;-88
2024/01/14 06:59:17;;;;;;;2.70;1.10;;;-0.30;99.90;;;;;;5114617;28;20027;-90
2024/01/14 07:01:44;;;;;;;2.25;1.08;;;-0.30;99.90;;;;;;5114842;28;20051;-88
2024/01/14 07:04:10;;;;;;;2.40;0.70;;;-0.30;99.90;;;;;;5115143;28;20023;-88
2024/01/14 07:06:35;;;;;;;6.03;0.85;;;-0.30;99.90;;;;;;5114843;28;20499;-87
2024/01/14 07:09:01;;;;;;;3.03;1.40;;;-0.30;99.90;;;;;;5114867;28;20457;-88
2024/01/14 07:11:27;;;;;;;3.22;1.08;;;-0.30;99.90;;;;;;5114327;28;20027;-88
2024/01/14 07:13:53;;;;;;;4.75;1.70;;;-0.30;99.90;;;;;;5114963;28;20091;-88
2024/01/14 07:16:18;;;;;;;4.35;0.93;;;-0.30;99.90;;;;;;5114601;28;20114;-88
2024/01/14 07:18:44;;;;;;;6.93;1.48;;;-0.30;99.90;;;;;;5115107;28;20042;-88
2024/01/14 07:21:10;;;;;;;7.22;1.15;;;-0.30;99.90;;;;;;5114249;28;20039;-88
2024/01/14 07:23:37;;;;;;;7.30;1.50;;;-0.30;99.90;;;;;;5114317;28;20061;-88
2024/01/14 07:26:05;;;;;;;3.53;1.08;;;-0.30;99.90;;;;;;5114353;28;20043;-88
2024/01/14 07:28:31;;;;;;;2.10;0.70;;;-0.30;99.90;;;;;;5114607;28;20027;-87
2024/01/14 07:30:57;;;;;;;4.28;1.17;;;-0.30;99.90;;;;;;5114533;28;20068;-88
2024/01/14 07:33:22;;;;;;;2.13;1.10;;;-0.30;99.90;;;;;;5097541;28;20040;-87
2024/01/14 07:35:48;;;;;;;4.65;0.85;;;-0.30;99.90;;;;;;5114928;28;20110;-88
2024/01/14 07:38:14;;;;;;;5.65;1.30;;;-0.30;99.90;;;;;;5114812;28;20476;-87
2024/01/14 07:40:41;;;;;;;6.90;1.10;;;-0.30;99.90;;;;;;5114467;28;20362;-87
2024/01/14 07:43:07;;;;;;;4.80;1.10;;;-0.40;99.90;;;;;;5114116;28;20368;-87
2024/01/14 07:45:33;;;;;;;3.17;0.93;;;-0.40;99.90;;;;;;5114096;28;20032;-87
2024/01/14 07:47:59;;;;;;;2.30;0.90;;;-0.40;99.90;;;;;;5114259;28;20024;-87
2024/01/14 07:50:24;;;;;;;5.90;1.88;;;-0.40;99.90;;;;;;5114929;28;20114;-88
2024/01/14 07:52:50;;;;;;;8.98;1.60;;;-0.50;99.90;;;;;;5114179;28;20024;-88
2024/01/14 07:55:16;;;;;;;6.00;1.60;;;-0.50;99.90;;;;;;5114155;28;20036;-88
2024/01/14 07:57:41;;;;;;;3.88;1.10;;;-0.60;99.90;;;;;;5114209;28;20028;-87
2024/01/14 08:00:08;;;;;;;3.38;1.40;;;-0.70;99.90;;;;;;5114320;28;20028;-87
2024/01/14 08:02:33;;;;;;;11.07;1.70;;;-0.70;99.90;;;;;;5113040;28;20084;-87
2024/01/14 08:04:59;;;;;;;3.83;1.30;;;-0.70;99.90;;;;;;5113499;28;20043;-87
2024/01/14 08:07:25;;;;;;;6.65;1.40;;;-0.70;99.90;;;;;;5113488;28;20423;-87
2024/01/14 08:09:50;;;;;;;3.83;1.40;;;-0.70;99.90;;;;;;5113635;28;20030;-87
2024/01/14 08:12:16;;;;;;;2.80;1.00;;;-0.70;99.90;;;;;;5113301;28;20024;-88
2024/01/14 08:14:42;;;;;;;1.42;1.08;;;-0.70;99.90;;;;;;5111490;28;20090;-88
2024/01/14 08:17:07;;;;;;;2.72;1.20;;;-0.70;99.90;;;;;;5101670;28;20402;-87
2024/01/14 08:19:33;;;;;;;1.88;1.05;;;-0.70;99.90;;;;;;5100968;28;20030;-87
2024/01/14 08:21:59;;;;;;;2.35;1.17;;;-0.70;99.90;;;;;;5104339;28;20127;-87
2024/01/14 08:24:24;;;;;;;7.43;1.10;;;-0.60;99.90;;;;;;5101126;28;20052;-88
2024/01/14 08:26:50;;;;;;;3.38;1.02;;;-0.70;99.90;;;;;;5102993;28;20039;-88
2024/01/14 08:29:16;;;;;;;4.03;0.75;;;-0.70;99.90;;;;;;5102037;28;20077;-89
2024/01/14 08:31:42;;;;;;;4.38;1.05;;;-0.70;99.90;;;;;;5101667;28;20154;-87
2024/01/14 08:34:08;;;;;;;4.28;1.10;;;-0.70;99.90;;;;;;5098535;28;20146;-86
2024/01/14 08:36:35;;;;;;;3.00;1.08;;;-0.70;99.90;;;;;;5102461;28;20023;-87
2024/01/14 08:39:03;;;;;;;3.20;1.15;;;-0.70;99.90;;;;;;5105714;28;20016;-86
2024/01/14 08:41:29;;;;;;;5.00;1.30;;;-0.70;99.90;;;;;;5101905;28;20023;-86
2024/01/14 08:43:56;;;;;;;5.15;0.95;;;-0.70;99.90;;;;;;5101315;28;20107;-86
2024/01/14 08:46:24;;;;;;;1.63;1.10;;;-0.70;99.90;;;;;;5102740;28;20039;-87
2024/01/14 08:48:50;;;;;;;2.47;1.20;;;-0.70;99.90;;;;;;5099715;28;20031;-88
2024/01/14 08:51:19;;;;;;;5.35;1.65;;;-0.60;99.90;;;;;;5109374;28;20024;-87
2024/01/14 08:53:45;;;;;;;8.65;1.50;;;-0.60;99.90;;;;;;5088781;28;20122;-87
2024/01/14 08:56:10;;;;;;;2.30;1.25;;;-0.60;99.90;;;;;;5100520;28;20062;-86
2024/01/14 08:58:36;;;;;;;3.55;1.08;;;-0.60;99.90;;;;;;5100419;28;20019;-88
2024/01/14 09:01:02;;;;;;;4.65;1.20;;;-0.50;99.90;;;;;;5096699;28;20024;-86
2024/01/14 09:03:28;;;;;;;3.30;1.00;;;-0.50;99.90;;;;;;5106940;28;20027;-88
2024/01/14 09:05:53;;;;;;;5.30;1.40;;;-0.50;99.90;;;;;;5102784;28;20099;-88
2024/01/14 09:08:19;;;;;;;2.05;0.90;;;-0.50;99.90;;;;;;5103503;28;20055;-87
2024/01/14 09:10:47;;;;;;;9.95;3.83;;;-0.60;99.90;;;;;;5101846;28;20069;-87
2024/01/14 09:13:14;;;;;;;10.30;4.28;;;-0.60;99.90;;;;;;5098039;28;20020;-90
2024/01/14 09:15:40;;;;;;;10.45;3.90;;;-0.70;99.90;;;;;;5109588;28;20027;-87
2024/01/14 09:18:06;;;;;;;8.20;2.35;;;-0.70;99.90;;;;;;5110313;28;20024;-87
2024/01/14 09:20:32;;;;;;;2.65;1.25;;;-0.70;99.90;;;;;;5110345;28;20054;-89
2024/01/14 09:22:58;;;;;;;2.70;1.05;;;-0.70;99.90;;;;;;5110199;28;20039;-87
2024/01/14 09:25:23;;;;;;;4.80;1.42;;;-0.70;99.90;;;;;;5092623;28;20386;-88
2024/01/14 09:27:50;;;;;;;4.10;1.60;;;-0.50;99.90;;;;;;5089223;28;20050;-88
2024/01/14 09:30:15;;;;;;;5.00;2.20;;;-0.40;99.90;;;;;;5093112;28;20110;-86
2024/01/14 09:32:43;;;;;;;8.07;2.35;;;-0.30;99.90;;;;;;5090326;28;20049;-88
2024/01/14 09:35:08;;;;;;;10.40;2.40;;;-0.20;99.90;;;;;;5091632;28;20036;-86
2024/01/14 09:37:34;;;;;;;6.88;3.20;;;0.00;99.90;;;;;;5090692;28;20016;-87
2024/01/14 09:40:00;;;;;;;20.05;8.63;;;0.20;99.90;;;;;;5090446;28;20042;-85
2024/01/14 09:42:37;;;;;;;24.27;9.45;;;0.40;99.90;;;;;;5089639;28;20016;-89
2024/01/14 09:45:05;;;;;;;20.42;7.53;;;0.70;99.90;;;;;;5109966;28;20149;-89
2024/01/14 09:47:32;;;;;;;15.60;7.03;;;0.90;99.90;;;;;;5089912;28;20027;-88
2024/01/14 09:49:59;;;;;;;22.77;6.30;;;1.10;99.90;;;;;;5090812;28;20106;-88
2024/01/14 09:52:27;;;;;;;20.00;6.40;;;1.40;99.90;;;;;;5108573;28;20020;-87
2024/01/14 09:54:53;;;;;;;16.80;6.15;;;1.60;99.90;;;;;;5091280;28;20044;-88
2024/01/14 09:57:20;;;;;;;18.08;5.88;;;1.80;99.90;;;;;;5091019;28;20544;-88
2024/01/14 09:59:48;;;;;;;19.13;6.68;;;2.00;99.90;;;;;;5091689;28;20032;-88
2024/01/14 10:02:14;;;;;;;11.23;5.30;;;2.30;99.90;;;;;;5091583;28;20032;-84
2024/01/14 10:04:41;;;;;;;15.75;4.13;;;2.60;99.90;;;;;;5093391;28;20031;-87
2024/01/14 10:07:10;;;;;;;12.25;3.33;;;2.90;99.90;;;;;;5095769;28;20084;-86
2024/01/14 10:09:39;;;;;;;8.93;2.80;;;3.10;99.90;;;;;;5094223;28;20023;-90
2024/01/14 10:12:10;;;;;;;10.65;3.63;;;3.30;99.90;;;;;;5094609;28;20023;-86
2024/01/14 10:14:37;;;;;;;11.93;3.80;;;3.50;99.90;;;;;;5094451;28;20028;-88
2024/01/14 10:17:03;;;;;;;12.70;4.55;;;3.80;99.90;;;;;;5113940;28;20376;-88
2024/01/14 10:19:29;;;;;;;11.25;4.55;;;4.10;99.90;;;;;;5093136;28;20024;-89
2024/01/14 10:21:56;;;;;;;13.25;5.00;;;4.40;99.90;;;;;;5077532;28;20048;-88
2024/01/14 10:24:22;;;;;;;11.63;4.22;;;4.60;99.90;;;;;;5095935;28;20035;-89
2024/01/14 10:26:54;;;;;;;11.88;5.22;;;5.00;99.90;;;;;;5089125;28;20496;-87
2024/01/14 10:29:21;;;;;;;12.10;3.95;;;5.20;99.90;;;;;;5112542;28;20020;-87
2024/01/14 10:31:48;;;;;;;6.65;3.25;;;5.40;99.90;;;;;;5090648;28;20030;-89
2024/01/14 10:34:17;;;;;;;6.95;3.10;;;5.50;99.90;;;;;;5095270;28;20048;-89
2024/01/14 10:36:43;;;;;;;7.68;3.05;;;5.70;99.90;;;;;;5117958;28;20088;-89
2024/01/14 10:39:12;;;;;;;9.52;3.75;;;6.00;99.90;;;;;;5100195;28;20031;-89
2024/01/14 10:41:38;;;;;;;7.53;2.83;;;6.20;99.90;;;;;;5099849;28;20051;-91
2024/01/14 10:44:04;;;;;;;12.15;5.65;;;6.30;99.90;;;;;;5099171;28;20059;-90
2024/01/14 10:46:32;;;;;;;8.15;3.80;;;6.40;99.90;;;;;;5098242;28;20039;-89
2024/01/14 10:49:08;;;;;;;6.80;3.47;;;6.70;99.90;;;;;;5098140;28;20469;-89
2024/01/14 10:51:47;;;;;;;15.30;4.95;;;6.90;99.90;;;;;;5098425;28;20016;-89
2024/01/14 10:54:41;;;;;;;6.57;2.80;;;7.10;99.90;;;;;;5097570;28;20548;-89
2024/01/14 10:57:25;;;;;;;6.15;2.65;;;7.30;99.90;;;;;;5098363;28;20106;-88
2024/01/14 10:59:59;;;;;;;5.68;3.15;;;7.50;99.90;;;;;;5097530;28;20036;-89
2024/01/14 11:02:28;;;;;;;5.80;2.50;;;7.60;99.90;;;;;;5098353;28;20080;-89
2024/01/14 11:04:55;;;;;;;7.78;2.58;;;7.80;99.90;;;;;;5096497;28;20016;-88
2024/01/14 11:07:23;;;;;;;6.15;2.10;;;7.90;99.90;;;;;;5117637;28;20063;-89
2024/01/14 11:09:52;;;;;;;3.63;2.05;;;8.10;99.90;;;;;;5080722;28;20097;-89
2024/01/14 11:12:36;;;;;;;4.60;2.30;;;8.30;99.90;;;;;;5098241;28;20028;-88
2024/01/14 11:15:46;;;;;;;6.72;1.67;;;8.70;99.90;;;;;;5098101;28;20035;-87
2024/01/14 11:18:18;;;;;;;5.93;2.13;;;9.20;99.90;;;;;;5097144;28;20023;-89
2024/01/14 11:20:49;;;;;;;6.75;1.70;;;9.40;99.90;;;;;;5096345;28;20028;-87
2024/01/14 11:23:14;;;;;;;14.40;3.00;;;9.50;99.90;;;;;;5100220;28;20027;-87
2024/01/14 11:25:45;;;;;;;10.60;4.25;;;9.30;99.90;;;;;;5114117;28;20041;-89
2024/01/14 11:28:11;;;;;;;11.55;4.97;;;9.00;99.90;;;;;;5093493;28;20119;-88
2024/01/14 11:30:55;;;;;;;13.35;4.93;;;8.70;99.90;;;;;;5087012;28;20055;-87
2024/01/14 11:33:28;;;;;;;10.77;4.00;;;8.30;99.90;;;;;;5085326;28;20024;-87
2024/01/14 11:35:53;;;;;;;12.73;4.75;;;8.00;99.90;;;;;;5087635;28;20028;-87
2024/01/14 11:38:35;;;;;;;13.13;4.47;;;7.70;99.90;;;;;;5102245;28;20349;-87
2024/01/14 11:41:30;;;;;;;20.77;6.05;;;7.40;99.90;;;;;;5104730;28;20063;-86
2024/01/14 11:44:10;;;;;;;12.18;4.88;;;7.10;99.90;;;;;;5090886;28;20496;-88
2024/01/14 11:46:48;;;;;;;12.73;4.15;;;6.90;99.90;;;;;;5104965;28;20059;-88
2024/01/14 11:49:18;;;;;;;9.35;3.25;;;6.60;99.90;;;;;;5090368;28;20020;-87
2024/01/14 11:52:03;;;;;;;7.75;2.53;;;6.50;99.90;;;;;;5102237;28;20020;-87
2024/01/14 11:54:32;;;;;;;7.22;2.17;;;6.30;99.90;;;;;;5094990;28;20041;-86
2024/01/14 11:56:58;;;;;;;4.80;1.65;;;6.10;99.90;;;;;;5100997;28;20038;-89
2024/01/14 11:59:24;;;;;;;6.35;1.40;;;5.90;99.90;;;;;;5086514;28;20035;-88
2024/01/14 12:01:50;;;;;;;1.13;0.80;;;5.80;99.90;;;;;;5088330;28;20138;-88
2024/01/14 12:04:16;;;;;;;4.18;1.20;;;5.70;99.90;;;;;;5077331;28;20049;-87
2024/01/14 12:06:43;;;;;;;1.65;0.93;;;5.60;99.90;;;;;;5077068;28;20028;-87
2024/01/14 12:09:11;;;;;;;4.75;1.48;;;5.50;99.90;;;;;;5084931;28;20223;-88
2024/01/14 12:11:37;;;;;;;4.72;1.23;;;5.50;99.90;;;;;;5087973;28;20038;-88
2024/01/14 12:14:04;;;;;;;2.90;1.50;;;5.50;99.90;;;;;;5086120;28;20500;-88
2024/01/14 12:16:34;;;;;;;2.92;1.90;;;5.50;99.90;;;;;;5089710;28;20031;-88
2024/01/14 12:19:00;;;;;;;1.70;0.90;;;5.50;99.90;;;;;;5080958;28;20027;-89
2024/01/14 12:21:27;;;;;;;5.85;1.10;;;5.40;99.90;;;;;;5093805;28;20042;-88
2024/01/14 12:23:53;;;;;;;3.25;0.88;;;5.30;99.90;;;;;;5114390;28;20167;-88
2024/01/14 12:26:19;;;;;;;1.23;0.88;;;5.30;99.90;;;;;;5113617;28;20030;-89
2024/01/14 12:28:46;;;;;;;4.25;1.00;;;5.30;99.90;;;;;;5109216;28;20045;-88
2024/01/14 12:31:20;;;;;;;2.65;0.90;;;5.20;99.90;;;;;;5113867;28;20077;-88
2024/01/14 12:33:46;;;;;;;1.50;1.00;;;5.20;99.90;;;;;;5114030;28;20043;-88
2024/01/14 12:36:13;;;;;;;3.75;1.17;;;5.10;99.90;;;;;;5115596;28;20031;-88
2024/01/14 12:38:40;;;;;;;2.55;0.93;;;5.10;99.90;;;;;;5114207;28;20110;-88
2024/01/14 12:41:06;;;;;;;1.65;1.55;;;5.00;99.90;;;;;;5110671;28;20105;-87
2024/01/14 12:43:32;;;;;;;2.60;1.25;;;5.00;99.90;;;;;;5094300;28;20024;-89
2024/01/14 12:45:57;;;;;;;1.95;1.45;;;5.00;99.90;;;;;;5103756;28;20046;-88
2024/01/14 12:48:24;;;;;;;3.17;1.40;;;5.10;99.90;;;;;;5112922;28;20031;-89
2024/01/14 12:50:58;;;;;;;2.10;1.55;;;5.00;99.90;;;;;;5093431;28;20104;-88